createdAt,value
2022-12-03T00:04:13.787Z,101297.05
2022-12-03T00:09:17.199Z,101297.27
2022-12-03T00:14:20.713Z,101298.14
2022-12-03T00:19:24.024Z,101295.52
2022-12-03T00:24:27.541Z,101287.21
2022-12-03T00:29:31.056Z,101282.43
2022-12-03T00:34:34.470Z,101276.34
2022-12-03T00:39:37.783Z,101278.26
2022-12-03T00:44:41.200Z,101278.26
2022-12-03T00:49:44.610Z,101274.72
2022-12-03T00:54:48.019Z,101272.91
2022-12-03T00:59:51.430Z,101269.85
2022-12-03T01:04:55.072Z,101268.55
2022-12-03T01:09:58.870Z,101269.34
2022-12-03T01:15:02.494Z,101267.21
2022-12-03T01:20:08.961Z,101263.51
2022-12-03T01:25:12.286Z,101260.55
2022-12-03T01:30:15.702Z,101258.89
2022-12-03T01:35:19.111Z,101257.89
2022-12-03T01:40:22.730Z,101258.68
2022-12-03T01:45:26.040Z,101257.34
2022-12-03T01:50:33.666Z,101253.74
2022-12-03T01:55:37.886Z,101253.48
2022-12-03T02:00:41.196Z,101250.41
2022-12-03T02:05:46.657Z,101250.03
2022-12-03T02:10:50.172Z,101243.20
2022-12-03T02:15:53.867Z,101240.98
2022-12-03T02:21:15.022Z,101235.96
2022-12-03T02:26:18.745Z,101236.58
2022-12-03T02:31:22.783Z,101231.80
2022-12-03T02:36:26.488Z,101229.09
2022-12-03T02:41:48.846Z,101224.00
2022-12-03T02:46:52.317Z,101219.95
2022-12-03T02:51:55.879Z,101213.70
2022-12-03T02:56:59.600Z,101217.55
2022-12-03T03:02:03.122Z,101218.52
2022-12-03T03:07:07.038Z,101219.64
2022-12-03T03:12:11.175Z,101218.69
2022-12-03T03:17:14.787Z,101217.23
2022-12-03T03:22:19.124Z,101215.70
2022-12-03T03:27:22.437Z,101212.98
2022-12-03T03:32:28.516Z,101216.13
2022-12-03T03:37:32.228Z,101209.17
2022-12-03T03:42:36.563Z,101204.92
2022-12-03T03:47:41.104Z,101201.39
2022-12-03T03:52:45.742Z,101206.42
2022-12-03T03:57:49.371Z,101199.77
2022-12-03T04:02:53.967Z,101197.84
2022-12-03T04:07:59.076Z,101202.48
2022-12-03T04:13:03.292Z,101203.23
2022-12-03T04:18:25.238Z,101198.71
2022-12-03T04:23:31.056Z,101192.55
2022-12-03T04:28:49.775Z,101195.00
2022-12-03T04:34:12.675Z,101190.77
2022-12-03T04:39:16.367Z,101192.38
2022-12-03T04:44:38.007Z,101189.16
2022-12-03T04:49:44.297Z,101187.83
2022-12-03T04:54:47.911Z,101190.48
2022-12-03T04:59:51.316Z,101187.27
2022-12-03T05:04:54.998Z,101185.32
2022-12-03T05:09:58.655Z,101185.73
2022-12-03T05:15:02.169Z,101180.82
2022-12-03T05:20:25.244Z,101187.38
2022-12-03T05:25:28.657Z,101187.97
2022-12-03T05:30:32.445Z,101180.98
2022-12-03T05:35:35.896Z,101181.17
2022-12-03T05:40:39.611Z,101174.77
2022-12-03T05:45:44.635Z,101179.31
2022-12-03T05:50:48.183Z,101173.02
2022-12-03T05:55:51.593Z,101175.15
2022-12-03T06:00:55.007Z,101172.06
2022-12-03T06:05:58.419Z,101171.22
2022-12-03T06:11:01.935Z,101168.54
2022-12-03T06:16:05.739Z,101172.27
2022-12-03T06:21:09.068Z,101172.98
2022-12-03T06:33:23.998Z,101172.98
2022-12-03T06:38:27.413Z,101174.38
2022-12-03T06:43:31.338Z,101169.13
2022-12-03T06:48:34.750Z,101166.89
2022-12-03T06:53:38.194Z,101163.42
2022-12-03T06:58:41.680Z,101165.30
2022-12-03T07:03:44.991Z,101161.36
2022-12-03T07:08:48.506Z,101160.60
2022-12-03T07:13:51.916Z,101162.18
2022-12-03T07:18:56.256Z,101161.44
2022-12-03T07:23:59.567Z,101161.95
2022-12-03T07:29:02.976Z,101157.54
2022-12-03T07:34:06.390Z,101159.06
2022-12-03T07:39:10.009Z,101160.44
2022-12-03T07:44:14.839Z,101153.02
2022-12-03T07:49:18.478Z,101151.73
2022-12-03T07:54:24.955Z,101155.95
2022-12-03T07:59:29.191Z,101150.65
2022-12-03T08:04:32.500Z,101151.95
2022-12-03T08:09:36.014Z,101152.67
2022-12-03T08:14:39.428Z,101154.20
2022-12-03T08:19:47.105Z,101157.83
2022-12-03T08:24:53.728Z,101162.03
2022-12-03T08:30:03.913Z,101163.91
2022-12-03T08:35:30.355Z,101161.30
2022-12-03T08:40:36.329Z,101159.38
2022-12-03T08:45:42.064Z,101149.41
2022-12-03T08:50:46.261Z,101151.52
2022-12-03T08:55:53.329Z,101157.60
2022-12-03T09:01:22.931Z,101150.05
2022-12-03T09:06:26.468Z,101152.25
2022-12-03T09:11:29.779Z,101147.44
2022-12-03T09:16:33.235Z,101150.16
2022-12-03T09:21:36.604Z,101147.08
2022-12-03T09:26:40.121Z,101147.58
2022-12-03T09:31:43.668Z,101146.64
2022-12-03T09:36:47.151Z,101146.36
2022-12-03T09:41:50.709Z,101143.64
2022-12-03T09:46:54.391Z,101138.51
2022-12-03T09:52:01.055Z,101139.33
2022-12-03T09:57:05.104Z,101136.98
2022-12-03T10:02:25.311Z,101133.74
2022-12-03T10:07:28.808Z,101130.55
2022-12-03T10:12:32.448Z,101128.04
2022-12-03T10:17:35.960Z,101121.77
2022-12-03T10:22:40.299Z,101119.66
2022-12-03T10:27:55.383Z,101119.77
2022-12-03T10:33:02.837Z,101119.20
2022-12-03T10:38:19.002Z,101115.97
2022-12-03T10:43:24.983Z,101115.67
2022-12-03T10:48:28.287Z,101115.66
2022-12-03T10:53:34.250Z,101114.60
2022-12-03T10:58:40.231Z,101109.59
2022-12-03T11:03:44.543Z,101107.12
2022-12-03T11:08:57.595Z,101104.16
2022-12-03T11:14:05.113Z,101098.79
2022-12-03T11:19:33.411Z,101096.40
2022-12-03T11:24:39.793Z,101092.89
2022-12-03T11:29:47.919Z,101087.71
2022-12-03T11:34:51.328Z,101083.15
2022-12-03T11:40:16.367Z,101077.59
2022-12-03T11:45:23.761Z,101071.20
2022-12-03T11:50:38.947Z,101065.90
2022-12-03T11:55:48.818Z,101064.04
2022-12-03T12:00:55.604Z,101060.35
2022-12-03T12:06:07.821Z,101058.23
2022-12-03T12:11:30.488Z,101055.44
2022-12-03T12:16:43.407Z,101057.10
2022-12-03T12:21:48.434Z,101052.44
2022-12-03T12:26:52.399Z,101051.19
2022-12-03T12:32:07.538Z,101050.67
2022-12-03T12:37:16.941Z,101049.46
2022-12-03T12:42:43.293Z,101049.12
2022-12-03T12:47:54.082Z,101048.80
2022-12-03T12:53:04.248Z,101052.70
2022-12-03T12:58:19.951Z,101051.55
2022-12-03T13:03:34.321Z,101051.67
2022-12-03T13:08:44.310Z,101056.95
2022-12-03T13:13:48.111Z,101055.16
2022-12-03T13:18:57.772Z,101053.59
2022-12-03T13:24:01.702Z,101051.19
2022-12-03T13:29:16.167Z,101053.41
2022-12-03T13:34:22.244Z,101050.14
2022-12-03T13:39:35.391Z,101043.09
2022-12-03T13:44:45.790Z,101045.86
2022-12-03T13:50:03.930Z,101042.90
2022-12-03T13:55:11.530Z,101042.14
2022-12-03T14:00:15.767Z,101043.66
2022-12-03T14:05:19.585Z,101042.77
2022-12-03T14:10:22.965Z,101045.92
2022-12-03T14:15:26.767Z,101045.51
2022-12-03T14:20:30.186Z,101051.85
2022-12-03T14:25:33.544Z,101050.45
2022-12-03T14:30:37.370Z,101047.55
2022-12-03T14:35:40.679Z,101049.12
2022-12-03T14:40:44.092Z,101049.39
2022-12-03T14:45:47.524Z,101052.23
2022-12-03T14:50:51.123Z,101048.16
2022-12-03T14:55:55.981Z,101044.71
2022-12-03T15:00:59.421Z,101034.49
2022-12-03T15:06:02.899Z,101027.01
2022-12-03T15:11:06.720Z,101021.20
2022-12-03T15:16:10.080Z,101016.61
2022-12-03T15:21:13.650Z,101020.13
2022-12-03T15:26:19.623Z,101030.85
2022-12-03T15:31:23.230Z,101028.60
2022-12-03T15:43:40.221Z,101029.82
2022-12-03T15:48:43.631Z,101034.36
2022-12-03T15:53:46.944Z,101034.85
2022-12-03T15:58:50.356Z,101033.86
2022-12-03T16:03:53.767Z,101039.48
2022-12-03T16:08:57.182Z,101042.77
2022-12-03T16:14:00.594Z,101041.52
2022-12-03T16:19:04.110Z,101035.45
2022-12-03T16:24:07.728Z,101039.47
2022-12-03T16:29:36.330Z,101040.94
2022-12-03T16:34:39.643Z,101040.05
2022-12-03T16:39:44.799Z,101045.16
2022-12-03T16:45:05.322Z,101046.80
2022-12-03T16:50:12.987Z,101048.90
2022-12-03T16:55:21.556Z,101056.16
2022-12-03T17:00:26.201Z,101060.16
2022-12-03T17:05:29.511Z,101056.16
2022-12-03T17:10:33.169Z,101057.44
2022-12-03T17:15:36.797Z,101056.86
2022-12-03T17:20:40.363Z,101048.05
2022-12-03T17:25:43.884Z,101056.20
2022-12-03T17:30:47.130Z,101057.23
2022-12-03T17:35:50.603Z,101059.57
2022-12-03T17:40:54.019Z,101059.05
2022-12-03T17:45:57.469Z,101057.64
2022-12-03T17:51:04.274Z,101058.95
2022-12-03T17:56:10.709Z,101055.23
2022-12-03T18:01:14.326Z,101052.67
2022-12-03T18:06:17.638Z,101053.73
2022-12-03T18:11:21.458Z,101059.78
2022-12-03T18:16:25.113Z,101056.92
2022-12-03T18:21:28.802Z,101049.27
2022-12-03T18:26:32.210Z,101051.31
2022-12-03T18:31:35.863Z,101052.19
2022-12-03T18:36:39.563Z,101053.45
2022-12-03T18:41:43.064Z,101053.56
2022-12-03T18:46:54.691Z,101052.00
2022-12-03T18:51:59.749Z,101042.77
2022-12-03T18:57:03.236Z,101049.61
2022-12-03T19:02:07.860Z,101043.52
2022-12-03T19:07:13.544Z,101042.26
2022-12-03T19:12:17.064Z,101035.03
2022-12-03T19:17:21.711Z,101040.04
2022-12-03T19:22:25.219Z,101052.27
2022-12-03T19:27:31.194Z,101051.84
2022-12-03T19:32:35.730Z,101049.27
2022-12-03T19:37:39.148Z,101057.38
2022-12-03T19:42:42.557Z,101056.71
2022-12-03T19:47:46.075Z,101057.77
2022-12-03T19:52:49.384Z,101061.67
2022-12-03T19:57:52.898Z,101062.81
2022-12-03T20:02:56.366Z,101068.65
2022-12-03T20:08:04.452Z,101068.09
2022-12-03T20:13:08.142Z,101068.69
2022-12-03T20:18:11.568Z,101065.02
2022-12-03T20:23:14.879Z,101064.42
2022-12-03T20:28:18.409Z,101063.78
2022-12-03T20:33:21.703Z,101063.84
2022-12-03T20:38:26.794Z,101069.30
2022-12-03T20:43:30.172Z,101071.42
2022-12-03T20:48:33.690Z,101073.39
2022-12-03T20:53:37.924Z,101064.42
2022-12-03T20:58:41.229Z,101063.91
2022-12-03T21:03:45.772Z,101066.86
2022-12-03T21:08:49.700Z,101060.94
2022-12-03T21:13:54.745Z,101060.55
2022-12-03T21:18:59.599Z,101055.61
2022-12-03T21:24:03.012Z,101059.36
2022-12-03T21:29:06.422Z,101052.70
2022-12-03T21:34:11.265Z,101047.11
2022-12-03T21:39:14.916Z,101043.21
2022-12-03T21:44:21.676Z,101043.29
2022-12-03T21:49:25.207Z,101042.90
2022-12-03T21:54:28.708Z,101046.92
2022-12-03T21:59:32.330Z,101045.45
2022-12-03T22:04:35.636Z,101042.89
2022-12-03T22:09:39.253Z,101056.39
2022-12-03T22:14:42.667Z,101063.15
2022-12-03T22:19:46.182Z,101060.39
2022-12-03T22:24:49.706Z,101055.20
2022-12-03T22:29:53.256Z,101054.97
2022-12-03T22:34:56.935Z,101062.73
2022-12-03T22:40:00.659Z,101062.14
2022-12-03T22:45:04.672Z,101054.41
2022-12-03T22:50:09.121Z,101053.95
2022-12-03T22:55:12.326Z,101045.89
2022-12-03T23:00:27.727Z,101046.27
2022-12-03T23:05:37.116Z,101049.23
2022-12-03T23:10:43.774Z,101050.86
2022-12-03T23:15:52.275Z,101045.05
2022-12-03T23:20:57.160Z,101051.50
2022-12-03T23:26:01.683Z,101047.16
2022-12-03T23:31:06.593Z,101043.59
2022-12-03T23:36:11.042Z,101039.16
2022-12-03T23:41:17.914Z,101046.66
2022-12-03T23:46:26.340Z,101038.59
2022-12-03T23:51:29.909Z,101043.86
2022-12-03T23:56:33.324Z,101047.36
